Time;durP1;ratioP1;P1;durP2;ratioP2;P2;SDS_P1;SDS_P2;PMS_P1;PMS_P2;Temp;Humidity;BMP_temperature;BMP_pressure;BME280_temperature;BME280_humidity;BME280_pressure;Samples;Min_cycle;Max_cycle;Signal;HPM_P1;HPM_P2
2023/09/25 00:01:37;;;;;;;4.90;3.70;;;;;;;14.34;77.66;100358.04;108467;1279;22265;-45
2023/09/25 00:04:03;;;;;;;5.20;3.40;;;;;;;14.33;78.07;100360.04;108476;1280;24245;-50
2023/09/25 00:06:29;;;;;;;6.50;3.60;;;;;;;14.34;78.21;100367.02;108482;1292;22259;-45
2023/09/25 00:08:54;;;;;;;4.60;3.60;;;;;;;14.34;78.42;100369.14;108499;1302;23279;-48
2023/09/25 00:11:20;;;;;;;6.30;3.90;;;;;;;14.35;78.46;100366.63;108461;1282;22463;-49
2023/09/25 00:13:46;;;;;;;4.10;3.60;;;;;;;14.34;78.16;100364.53;108443;1302;22481;-46
2023/09/25 00:16:12;;;;;;;5.00;3.60;;;;;;;14.34;78.72;100365.60;108486;1282;22222;-43
2023/09/25 00:18:38;;;;;;;5.80;3.90;;;;;;;14.35;78.66;100369.27;108466;1302;22933;-48
2023/09/25 00:21:03;;;;;;;4.80;3.90;;;;;;;14.37;78.56;100371.09;108473;1286;22213;-45
2023/09/25 00:23:28;;;;;;;7.20;3.70;;;;;;;14.38;78.66;100371.17;108455;1302;23014;-45
2023/09/25 00:26:01;;;;;;;4.90;3.90;;;;;;;14.40;78.71;100374.61;108460;1280;22211;-49
2023/09/25 00:28:27;;;;;;;5.40;4.00;;;;;;;14.43;78.56;100370.10;108476;1298;22392;-46
2023/09/25 00:30:52;;;;;;;5.10;3.60;;;;;;;14.45;78.64;100372.29;108475;1296;22208;-44
2023/09/25 00:33:17;;;;;;;3.70;3.40;;;;;;;14.45;78.69;100375.42;108479;1280;22232;-49
2023/09/25 00:35:42;;;;;;;4.80;3.90;;;;;;;14.44;78.30;100376.70;108464;1280;22214;-48
2023/09/25 00:38:08;;;;;;;6.90;4.00;;;;;;;14.44;78.73;100377.56;108468;1282;22267;-50
2023/09/25 00:40:33;;;;;;;4.90;4.00;;;;;;;14.46;78.67;100373.64;108350;1285;22277;-47
2023/09/25 00:42:59;;;;;;;5.10;3.40;;;;;;;14.47;78.72;100369.31;108465;1283;22271;-49
2023/09/25 00:45:24;;;;;;;5.90;3.90;;;;;;;14.47;78.63;100367.02;108468;1279;22287;-46
2023/09/25 00:47:50;;;;;;;5.40;3.60;;;;;;;14.48;78.76;100365.20;108461;1282;22230;-47
2023/09/25 00:50:17;;;;;;;5.30;3.20;;;;;;;14.49;79.01;100359.33;108486;1282;22516;-47
2023/09/25 00:52:44;;;;;;;6.40;3.50;;;;;;;14.51;78.91;100353.24;108470;1285;22272;-48
2023/09/25 00:55:11;;;;;;;6.20;3.50;;;;;;;14.52;78.92;100353.17;108491;1282;22385;-47
2023/09/25 00:57:39;;;;;;;6.30;3.50;;;;;;;14.53;78.90;100353.61;108454;1282;22282;-48
2023/09/25 01:00:05;;;;;;;4.10;2.90;;;;;;;14.54;78.81;100360.14;108465;1282;22221;-45
2023/09/25 01:02:31;;;;;;;4.80;3.40;;;;;;;14.53;79.09;100358.75;108472;1289;22813;-47
2023/09/25 01:05:00;;;;;;;3.40;3.10;;;;;;;14.54;78.96;100358.33;108474;1279;22198;-46
2023/09/25 01:07:25;;;;;;;4.40;3.00;;;;;;;14.57;79.04;100361.74;108501;1280;22310;-50
2023/09/25 01:10:14;;;;;;;6.70;3.20;;;;;;;14.59;79.14;100365.88;108467;1302;22195;-48
2023/09/25 01:12:40;;;;;;;3.40;2.50;;;;;;;14.61;79.25;100368.08;108479;1280;23074;-47
2023/09/25 01:15:06;;;;;;;4.10;2.80;;;;;;;14.63;79.26;100366.59;108464;1282;22342;-46
2023/09/25 01:17:32;;;;;;;6.60;3.00;;;;;;;14.64;79.26;100365.06;108481;1302;22656;-47
2023/09/25 01:19:58;;;;;;;6.80;3.30;;;;;;;14.67;79.25;100364.05;108455;1302;22375;-46
2023/09/25 01:22:23;;;;;;;3.70;2.80;;;;;;;14.69;79.01;100366.40;108466;1282;22181;-48
2023/09/25 01:24:49;;;;;;;7.40;3.10;;;;;;;14.71;79.19;100364.70;108477;1302;23035;-47
2023/09/25 01:27:14;;;;;;;3.60;2.40;;;;;;;14.72;79.46;100365.52;108473;1302;22206;-49
2023/09/25 01:29:40;;;;;;;5.70;3.00;;;;;;;14.74;79.30;100366.66;108436;1292;22287;-45
2023/09/25 01:32:05;;;;;;;7.60;2.50;;;;;;;14.75;79.10;100370.11;108332;1284;22231;-50
2023/09/25 01:34:31;;;;;;;3.40;2.50;;;;;;;14.77;78.96;100364.33;108354;1303;22454;-48
2023/09/25 01:36:56;;;;;;;3.40;2.30;;;;;;;14.78;78.83;100363.77;108361;1303;22207;-46
2023/09/25 01:39:21;;;;;;;3.60;2.50;;;;;;;14.80;78.99;100364.70;108355;1282;23084;-48
2023/09/25 01:41:47;;;;;;;10.70;2.80;;;;;;;14.82;78.88;100359.88;108345;1285;22492;-49
2023/09/25 01:44:12;;;;;;;3.10;2.60;;;;;;;14.82;78.75;100361.77;108350;1303;22712;-46
2023/09/25 01:46:40;;;;;;;3.60;2.20;;;;;;;14.83;78.87;100359.06;108373;1303;22406;-47
2023/09/25 01:49:06;;;;;;;3.40;2.20;;;;;;;14.85;78.98;100360.55;108363;1282;22232;-48
2023/09/25 01:51:32;;;;;;;3.40;2.50;;;;;;;14.84;78.90;100358.48;108376;1285;22228;-47
2023/09/25 01:53:57;;;;;;;4.40;2.60;;;;;;;14.85;78.84;100356.52;108337;1300;22341;-50
2023/09/25 01:56:22;;;;;;;3.20;2.10;;;;;;;14.86;79.08;100348.69;108372;1303;22227;-48
2023/09/25 01:58:47;;;;;;;5.00;2.20;;;;;;;14.85;79.21;100340.61;108368;1285;22923;-46
2023/09/25 02:01:13;;;;;;;6.40;2.40;;;;;;;14.87;79.26;100337.36;108364;1303;22296;-47
2023/09/25 02:03:38;;;;;;;2.50;2.10;;;;;;;14.89;79.12;100336.48;108371;1283;22248;-46
2023/09/25 02:06:04;;;;;;;6.60;2.40;;;;;;;14.91;79.10;100338.67;108364;1282;22373;-47
2023/09/25 02:08:29;;;;;;;2.60;2.20;;;;;;;14.92;78.97;100341.64;108364;1285;22407;-47
2023/09/25 02:10:55;;;;;;;8.00;2.30;;;;;;;14.92;79.04;100338.63;108364;1285;22287;-43
2023/09/25 02:13:20;;;;;;;6.50;2.10;;;;;;;14.94;78.88;100338.71;108365;1282;22204;-49
2023/09/25 02:15:47;;;;;;;3.40;2.30;;;;;;;14.94;78.84;100337.79;108375;1285;22868;-48
2023/09/25 02:18:12;;;;;;;2.80;2.10;;;;;;;14.95;78.75;100334.89;108363;1282;22269;-49
2023/09/25 02:20:38;;;;;;;2.70;2.10;;;;;;;14.96;78.86;100332.58;108336;1291;22247;-51
2023/09/25 02:23:03;;;;;;;5.10;2.60;;;;;;;14.96;78.83;100329.91;108352;1285;22204;-45
2023/09/25 02:25:28;;;;;;;5.70;2.20;;;;;;;14.95;78.88;100329.27;108353;1296;22204;-43
2023/09/25 02:27:54;;;;;;;2.90;2.20;;;;;;;14.96;78.83;100331.18;108361;1301;23145;-48
2023/09/25 02:30:19;;;;;;;2.20;1.80;;;;;;;14.97;78.84;100330.02;108360;1284;22203;-52
2023/09/25 02:32:45;;;;;;;4.90;2.50;;;;;;;15.00;78.92;100329.19;108371;1303;22239;-44
2023/09/25 02:35:11;;;;;;;2.00;1.80;;;;;;;15.02;78.79;100323.41;108344;1283;23066;-47
2023/09/25 02:37:37;;;;;;;3.30;2.10;;;;;;;15.03;78.99;100323.20;108357;1303;22507;-47
2023/09/25 02:40:06;;;;;;;4.40;2.20;;;;;;;15.03;78.74;100319.46;108357;1285;22495;-44
2023/09/25 02:44:00;;;;;;;2.20;1.90;;;;;;;15.07;78.78;100325.96;107501;1307;559133;-49
2023/09/25 02:46:26;;;;;;;4.70;2.00;;;;;;;15.03;78.79;100330.40;107770;1308;22339;-45
2023/09/25 02:48:51;;;;;;;6.00;2.20;;;;;;;15.03;78.83;100329.91;107753;1290;22321;-46
2023/09/25 02:51:16;;;;;;;3.20;2.10;;;;;;;15.03;78.58;100326.17;107746;1291;22271;-46
2023/09/25 02:53:42;;;;;;;7.80;2.20;;;;;;;15.02;79.00;100327.48;107770;1289;23065;-48
2023/09/25 02:56:07;;;;;;;4.60;2.30;;;;;;;15.00;79.03;100324.59;107769;1301;22279;-43
2023/09/25 02:58:32;;;;;;;3.50;2.30;;;;;;;14.98;79.16;100321.33;107936;1289;127078;-45
2023/09/25 03:00:59;;;;;;;5.30;2.50;;;;;;;14.96;79.07;100320.95;108007;1285;22496;-48
2023/09/25 03:03:24;;;;;;;3.80;2.40;;;;;;;14.93;79.52;100319.83;108034;1287;22486;-49
2023/09/25 03:05:49;;;;;;;6.30;2.40;;;;;;;14.91;79.37;100320.14;108038;1284;23371;-52
2023/09/25 03:08:14;;;;;;;5.50;2.20;;;;;;;14.88;79.32;100323.84;108027;1286;22988;-49
2023/09/25 03:10:40;;;;;;;4.80;2.50;;;;;;;14.85;79.77;100323.84;108013;1284;24363;-50
2023/09/25 03:13:05;;;;;;;2.00;1.80;;;;;;;14.83;79.98;100328.91;108028;1287;22400;-49
2023/09/25 03:15:30;;;;;;;11.90;2.30;;;;;;;14.79;79.80;100329.84;108023;1291;22463;-48
2023/09/25 03:17:56;;;;;;;4.80;2.20;;;;;;;14.74;80.16;100331.33;108029;1306;22761;-46
2023/09/25 03:20:23;;;;;;;4.30;2.30;;;;;;;14.69;80.57;100329.48;108016;1285;22280;-44
2023/09/25 03:22:48;;;;;;;4.20;2.50;;;;;;;14.66;80.52;100330.91;108046;1288;22423;-44
2023/09/25 03:25:14;;;;;;;6.80;3.00;;;;;;;14.62;80.60;100328.66;108010;1288;22252;-44
2023/09/25 03:27:40;;;;;;;4.60;2.30;;;;;;;14.55;80.62;100331.98;108034;1287;22450;-47
2023/09/25 03:30:06;;;;;;;6.20;2.50;;;;;;;14.49;81.30;100332.34;108010;1306;23314;-47
2023/09/25 03:32:32;;;;;;;3.60;2.50;;;;;;;14.44;81.23;100338.10;108007;1291;23088;-47
2023/09/25 03:34:58;;;;;;;4.00;2.70;;;;;;;14.40;81.36;100338.64;108023;1287;22458;-47
2023/09/25 03:37:23;;;;;;;6.40;2.90;;;;;;;14.36;81.89;100340.11;108033;1284;22445;-47
2023/09/25 03:39:48;;;;;;;5.10;3.10;;;;;;;14.33;81.68;100344.65;108007;1306;22213;-47
2023/09/25 03:42:13;;;;;;;7.40;2.70;;;;;;;14.30;81.82;100352.79;107989;1284;22228;-49
2023/09/25 03:44:39;;;;;;;9.20;3.20;;;;;;;14.22;82.21;100350.52;108004;1299;23220;-50
2023/09/25 03:47:04;;;;;;;4.70;3.00;;;;;;;14.17;82.39;100354.15;108022;1287;22277;-48
2023/09/25 03:49:29;;;;;;;3.80;2.90;;;;;;;14.13;82.82;100360.37;108005;1287;22493;-49
2023/09/25 03:51:54;;;;;;;5.40;2.80;;;;;;;14.08;82.72;100364.90;108018;1287;22258;-48
2023/09/25 03:54:19;;;;;;;4.70;3.50;;;;;;;14.05;82.95;100366.27;108009;1286;22239;-46
2023/09/25 03:56:45;;;;;;;4.80;3.50;;;;;;;14.00;83.33;100368.63;108008;1287;22254;-45
2023/09/25 03:59:11;;;;;;;4.30;3.30;;;;;;;13.97;83.74;100372.49;108007;1288;23161;-49
2023/09/25 04:01:36;;;;;;;3.60;2.90;;;;;;;13.94;84.15;100372.14;108028;1284;22635;-46
2023/09/25 04:04:02;;;;;;;9.30;3.30;;;;;;;13.90;83.63;100375.02;108006;1306;22432;-47
2023/09/25 04:06:27;;;;;;;8.80;3.40;;;;;;;13.86;83.75;100372.55;107995;1304;22491;-48
2023/09/25 04:08:52;;;;;;;7.10;3.60;;;;;;;13.83;83.62;100375.67;107993;1306;22449;-44
2023/09/25 04:11:18;;;;;;;6.10;3.20;;;;;;;13.81;84.07;100375.95;108022;1287;22264;-50
2023/09/25 04:13:44;;;;;;;7.90;3.00;;;;;;;13.80;84.58;100375.16;108010;1300;22499;-48
2023/09/25 04:16:12;;;;;;;5.20;3.20;;;;;;;13.78;85.01;100373.15;108010;1287;22452;-46
2023/09/25 04:18:38;;;;;;;4.40;2.80;;;;;;;13.76;85.39;100370.73;108008;1285;22463;-47
2023/09/25 04:21:06;;;;;;;6.20;3.20;;;;;;;13.76;85.42;100368.66;108025;1287;22930;-47
2023/09/25 04:23:31;;;;;;;5.70;3.40;;;;;;;13.75;85.46;100369.56;108003;1285;22238;-46
2023/09/25 04:26:00;;;;;;;7.70;3.40;;;;;;;13.75;85.12;100368.52;107992;1291;22409;-45
2023/09/25 04:28:28;;;;;;;8.10;2.80;;;;;;;13.74;85.03;100371.57;108005;1303;22508;-50
2023/09/25 04:30:54;;;;;;;6.30;2.90;;;;;;;13.72;85.02;100377.27;108018;1284;23255;-43
2023/09/25 04:33:19;;;;;;;4.70;3.10;;;;;;;13.70;85.67;100376.69;107990;1306;22602;-46
2023/09/25 04:35:45;;;;;;;4.70;3.00;;;;;;;13.69;85.57;100373.42;108014;1285;22259;-47
2023/09/25 04:38:10;;;;;;;6.60;3.30;;;;;;;13.66;85.90;100375.34;108001;1306;23065;-44
2023/09/25 04:40:35;;;;;;;4.70;3.20;;;;;;;13.64;86.13;100372.61;108016;1287;22256;-45
2023/09/25 04:43:01;;;;;;;3.70;3.00;;;;;;;13.61;86.25;100370.98;108021;1306;22443;-48
2023/09/25 04:45:29;;;;;;;9.60;2.70;;;;;;;13.58;86.40;100368.13;107604;1290;22457;-45
2023/09/25 04:47:57;;;;;;;6.80;2.70;;;;;;;13.56;86.63;100366.11;108023;1306;22435;-50
2023/09/25 04:50:23;;;;;;;4.20;3.00;;;;;;;13.55;86.66;100369.70;108014;1288;22218;-44
2023/09/25 04:52:48;;;;;;;5.30;2.60;;;;;;;13.54;86.43;100369.23;108023;1287;22234;-46
2023/09/25 04:55:14;;;;;;;6.80;2.80;;;;;;;13.53;86.30;100366.64;107968;1306;22963;-50
2023/09/25 04:57:45;;;;;;;3.40;2.80;;;;;;;13.51;86.91;100367.63;107980;1284;22498;-51
2023/09/25 05:00:21;;;;;;;7.20;2.90;;;;;;;13.51;87.25;100375.18;108014;1284;22435;-49
2023/09/25 05:02:47;;;;;;;5.10;3.10;;;;;;;13.52;87.13;100374.07;108022;1284;22316;-47
2023/09/25 05:05:17;;;;;;;3.30;2.80;;;;;;;13.54;87.00;100372.23;108020;1287;22884;-47
2023/09/25 05:07:45;;;;;;;3.20;2.60;;;;;;;13.57;87.17;100372.63;108021;1306;23042;-46
2023/09/25 05:10:11;;;;;;;3.70;2.80;;;;;;;13.60;87.50;100378.80;108046;1284;23053;-44
2023/09/25 05:12:38;;;;;;;6.90;2.90;;;;;;;13.64;87.22;100375.42;108025;1287;23036;-48
2023/09/25 05:15:05;;;;;;;7.90;2.60;;;;;;;13.68;87.03;100373.83;108025;1287;22446;-49
2023/09/25 05:17:31;;;;;;;10.40;2.90;;;;;;;13.71;87.04;100373.98;108013;1306;22480;-49
2023/09/25 05:19:56;;;;;;;5.80;3.10;;;;;;;13.73;86.99;100371.41;107997;1287;23064;-47
2023/09/25 05:22:21;;;;;;;4.00;2.90;;;;;;;13.73;86.81;100368.77;108032;1287;22447;-48
2023/09/25 05:24:48;;;;;;;11.90;2.90;;;;;;;13.74;87.07;100369.65;108020;1285;22583;-45
2023/09/25 05:27:13;;;;;;;5.00;2.50;;;;;;;13.75;86.89;100368.18;108001;1306;22231;-48
2023/09/25 05:29:38;;;;;;;7.20;3.00;;;;;;;13.75;86.68;100371.50;107977;1288;22986;-48
2023/09/25 05:32:04;;;;;;;12.20;2.70;;;;;;;13.75;87.05;100367.27;108027;1300;22433;-46
2023/09/25 05:34:30;;;;;;;7.50;2.50;;;;;;;13.78;87.12;100364.33;107835;1288;22490;-46
2023/09/25 05:36:56;;;;;;;8.50;3.00;;;;;;;13.80;87.06;100363.86;108029;1284;22283;-46
2023/09/25 05:39:24;;;;;;;5.40;2.50;;;;;;;13.81;87.75;100365.02;108005;1289;22262;-48
2023/09/25 05:41:49;;;;;;;8.10;2.40;;;;;;;13.85;87.37;100371.55;108005;1285;22408;-46
2023/09/25 05:44:15;;;;;;;5.50;3.00;;;;;;;13.88;87.04;100374.92;108012;1286;22438;-46
2023/09/25 05:46:40;;;;;;;6.00;2.30;;;;;;;13.89;86.98;100374.85;107998;1306;23031;-46
2023/09/25 05:49:07;;;;;;;6.60;2.90;;;;;;;13.91;87.14;100373.16;108003;1288;22302;-48
2023/09/25 05:51:32;;;;;;;11.80;2.80;;;;;;;13.92;87.31;100371.36;108000;1306;22443;-44
2023/09/25 05:53:57;;;;;;;4.40;2.20;;;;;;;13.92;87.59;100372.39;108021;1288;22337;-49
2023/09/25 05:56:23;;;;;;;7.20;2.40;;;;;;;13.94;87.21;100377.23;108020;1287;22220;-44
2023/09/25 05:58:48;;;;;;;5.20;2.90;;;;;;;13.96;87.34;100379.44;108002;1306;22432;-50
2023/09/25 06:01:13;;;;;;;4.00;3.00;;;;;;;13.98;87.45;100385.30;107979;1290;22249;-50
2023/09/25 06:03:38;;;;;;;7.90;2.80;;;;;;;14.05;87.16;100386.05;107994;1306;23259;-46
2023/09/25 06:06:05;;;;;;;4.90;2.80;;;;;;;14.10;87.34;100391.56;108024;1286;22260;-47
2023/09/25 06:08:30;;;;;;;7.10;2.50;;;;;;;14.18;87.17;100392.92;108010;1288;22522;-46
2023/09/25 06:11:02;;;;;;;15.00;3.00;;;;;;;14.28;87.32;100388.90;108033;1287;22563;-45
2023/09/25 06:13:30;;;;;;;9.80;2.40;;;;;;;14.35;87.35;100386.35;108027;1287;22539;-46
2023/09/25 06:15:55;;;;;;;17.00;3.00;;;;;;;14.46;87.12;100385.80;108006;1288;22401;-47
2023/09/25 06:18:21;;;;;;;7.20;3.80;;;;;;;14.56;86.78;100384.38;108018;1287;22253;-46
2023/09/25 06:20:48;;;;;;;8.00;3.30;;;;;;;14.67;86.66;100388.94;107989;1306;22395;-46
2023/09/25 06:23:14;;;;;;;9.70;3.30;;;;;;;14.77;86.58;100394.71;108022;1289;22191;-47
2023/09/25 06:25:42;;;;;;;5.90;2.40;;;;;;;14.88;86.36;100396.40;108004;1306;22230;-50
2023/09/25 06:28:08;;;;;;;3.30;2.40;;;;;;;14.98;86.09;100401.14;108013;1306;22247;-48
2023/09/25 06:30:34;;;;;;;7.40;2.70;;;;;;;15.08;85.96;100402.01;108014;1285;22286;-48
2023/09/25 06:32:59;;;;;;;6.70;2.40;;;;;;;15.17;85.68;100402.23;107994;1288;22318;-47
2023/09/25 06:35:25;;;;;;;4.40;2.30;;;;;;;15.26;85.47;100400.98;108010;1287;22309;-46
2023/09/25 06:37:51;;;;;;;3.30;2.40;;;;;;;15.37;85.55;100401.63;108007;1306;22230;-48
2023/09/25 06:40:17;;;;;;;7.50;2.50;;;;;;;15.46;85.52;100398.23;108027;1306;22320;-50
2023/09/25 06:42:42;;;;;;;8.90;3.00;;;;;;;15.55;85.15;100398.99;107994;1288;22325;-47
2023/09/25 06:45:08;;;;;;;5.60;2.70;;;;;;;15.60;84.60;100398.16;108023;1287;23078;-48
2023/09/25 06:47:34;;;;;;;4.10;2.40;;;;;;;15.61;84.58;100394.94;108000;1287;22442;-46
2023/09/25 06:49:59;;;;;;;5.10;2.40;;;;;;;15.61;84.54;100396.52;107979;1291;22228;-49
2023/09/25 06:52:25;;;;;;;4.20;2.40;;;;;;;15.61;84.34;100396.83;108001;1287;22251;-50
2023/09/25 06:54:50;;;;;;;5.90;2.90;;;;;;;15.63;84.45;100395.51;107986;1306;22291;-46
2023/09/25 06:57:15;;;;;;;5.20;2.40;;;;;;;15.65;84.43;100394.86;107979;1288;23111;-48
2023/09/25 06:59:40;;;;;;;5.10;2.70;;;;;;;15.67;84.44;100389.78;108006;1306;22416;-47
2023/09/25 07:02:06;;;;;;;7.80;3.30;;;;;;;15.69;84.50;100387.73;108021;1306;22227;-49
2023/09/25 07:04:32;;;;;;;5.30;3.00;;;;;;;15.74;84.61;100387.80;107988;1288;22420;-46
2023/09/25 07:06:57;;;;;;;18.10;4.50;;;;;;;15.76;84.72;100387.91;107996;1295;22245;-43
2023/09/25 07:09:23;;;;;;;4.50;3.10;;;;;;;15.76;84.44;100388.59;108027;1295;22988;-49
2023/09/25 07:11:48;;;;;;;5.10;3.20;;;;;;;15.76;84.42;100390.58;107832;1287;22233;-51
2023/09/25 07:14:14;;;;;;;7.40;2.90;;;;;;;15.77;84.44;100391.57;107853;1298;22812;-47
2023/09/25 07:16:40;;;;;;;6.50;2.70;;;;;;;15.77;84.52;100388.54;107830;1303;22261;-51
2023/09/25 07:19:08;;;;;;;7.20;3.10;;;;;;;15.78;84.46;100385.80;107843;1307;22250;-48
2023/09/25 07:21:33;;;;;;;8.00;3.30;;;;;;;15.79;84.38;100384.50;107876;1294;22521;-49
2023/09/25 07:23:59;;;;;;;7.80;3.30;;;;;;;15.82;84.35;100386.64;107871;1307;22448;-48
2023/09/25 07:26:24;;;;;;;10.20;3.00;;;;;;;15.85;84.51;100381.30;107878;1288;23011;-50
2023/09/25 07:28:49;;;;;;;6.80;2.60;;;;;;;15.90;84.56;100387.02;107877;1307;22269;-48
2023/09/25 07:31:26;;;;;;;5.90;3.00;;;;;;;15.94;84.29;100382.54;107880;1287;22979;-44
2023/09/25 07:33:54;;;;;;;8.70;2.80;;;;;;;15.96;84.33;100383.84;107867;1287;22261;-49
2023/09/25 07:36:20;;;;;;;9.80;3.20;;;;;;;16.01;84.43;100382.88;107860;1305;23245;-50
2023/09/25 07:38:49;;;;;;;5.20;3.30;;;;;;;16.06;84.56;100382.92;107888;1286;22429;-47
2023/09/25 07:41:14;;;;;;;5.30;2.80;;;;;;;16.11;84.46;100385.42;107876;1284;22447;-51
2023/09/25 07:43:40;;;;;;;7.10;3.10;;;;;;;16.18;84.26;100391.04;107864;1299;22263;-46
2023/09/25 07:46:06;;;;;;;12.90;3.00;;;;;;;16.22;84.56;100393.60;107865;1288;22970;-48
2023/09/25 07:48:31;;;;;;;7.20;2.70;;;;;;;16.26;84.41;100395.98;107864;1288;22512;-48
2023/09/25 07:50:58;;;;;;;8.30;3.20;;;;;;;16.31;83.93;100397.65;107851;1288;22294;-50
2023/09/25 07:53:24;;;;;;;5.20;2.60;;;;;;;16.37;84.02;100394.63;107861;1288;22479;-46
2023/09/25 07:55:51;;;;;;;4.60;3.20;;;;;;;16.44;83.86;100387.98;107880;1286;22238;-49
2023/09/25 07:58:16;;;;;;;23.70;3.40;;;;;;;16.49;83.67;100389.60;107877;1298;22494;-47
2023/09/25 08:00:44;;;;;;;4.20;2.80;;;;;;;16.56;83.51;100389.05;107864;1286;23221;-47
2023/09/25 08:03:14;;;;;;;4.30;3.00;;;;;;;16.62;83.45;100388.45;107878;1287;22310;-49
2023/09/25 08:05:39;;;;;;;4.30;2.70;;;;;;;16.69;83.33;100387.17;107852;1288;22515;-47
2023/09/25 08:08:04;;;;;;;4.30;2.60;;;;;;;16.75;83.28;100389.80;107865;1287;22532;-47
2023/09/25 08:10:30;;;;;;;5.80;2.80;;;;;;;16.80;83.07;100391.93;107874;1288;22233;-46
2023/09/25 08:12:55;;;;;;;5.80;2.80;;;;;;;16.87;82.97;100392.40;107893;1290;22301;-51
2023/09/25 08:15:22;;;;;;;5.20;2.90;;;;;;;16.93;82.95;100394.73;107865;1306;22264;-46
2023/09/25 08:17:48;;;;;;;7.90;2.90;;;;;;;16.99;82.97;100391.51;107805;1303;22836;-46
2023/09/25 08:20:14;;;;;;;4.30;2.90;;;;;;;17.05;82.83;100391.41;107822;1287;23150;-46
2023/09/25 08:22:43;;;;;;;4.90;3.10;;;;;;;17.12;82.76;100387.27;107839;1287;22242;-46
2023/09/25 08:25:09;;;;;;;6.30;2.70;;;;;;;17.18;82.72;100384.23;107836;1299;22269;-47
2023/09/25 08:27:35;;;;;;;4.70;2.70;;;;;;;17.27;82.55;100384.35;107843;1303;22243;-47
2023/09/25 08:30:01;;;;;;;3.80;2.60;;;;;;;17.34;82.28;100383.91;107854;1289;23432;-48
2023/09/25 08:32:27;;;;;;;6.10;2.40;;;;;;;17.41;82.05;100386.79;107882;1287;23264;-49
2023/09/25 08:34:52;;;;;;;7.30;2.70;;;;;;;17.53;81.83;100390.79;107878;1307;22267;-47
2023/09/25 08:37:17;;;;;;;5.40;2.30;;;;;;;17.63;81.26;100383.73;107860;1287;24235;-47
2023/09/25 08:39:42;;;;;;;5.00;2.40;;;;;;;17.72;80.95;100381.90;107878;1297;22269;-47
2023/09/25 08:42:09;;;;;;;6.70;2.20;;;;;;;17.79;80.59;100382.85;107868;1293;22463;-46
2023/09/25 08:44:36;;;;;;;2.60;1.90;;;;;;;17.88;80.36;100385.61;107859;1307;22477;-45
2023/09/25 08:47:01;;;;;;;4.20;2.10;;;;;;;17.95;80.14;100388.86;107888;1298;22730;-47
2023/09/25 08:49:27;;;;;;;2.90;2.10;;;;;;;18.03;79.72;100384.98;107868;1307;22445;-48
2023/09/25 08:51:53;;;;;;;2.30;2.10;;;;;;;18.09;79.44;100379.23;107885;1287;22312;-47
2023/09/25 08:54:19;;;;;;;4.10;1.90;;;;;;;18.19;79.11;100381.52;107848;1307;23299;-46
2023/09/25 08:56:45;;;;;;;2.80;2.20;;;;;;;18.33;79.27;100378.25;107868;1305;22455;-49
2023/09/25 08:59:11;;;;;;;5.80;2.50;;;;;;;18.43;78.76;100376.52;107904;1287;22928;-44
